Flight Track Log - Related Links

Times and Time Zones

All times are in EDT time to prevent confusion due to time zone crossing. See the USC105 flight status page for this flight to view local times or setup timezone preferences in your user account.

Time Position Orientation Groundspeed Altitude Reporting Facility
EDT Latitude Longitude Course Direction KTS MPH feet Rate Location/Type
Thu 09:56:48 PM 39.8197 -82.9219 30° Northeast 116 133 1,000  Level Indianapolis Center
Thu 09:57:48 PM 39.8411 -82.8836 54° Northeast 144 166 1,900 857 Climbing Indianapolis Center
Thu 09:58:19 PM 39.8511 -82.8619 59° Northeast 137 158 2,300 984 Climbing Indianapolis Center
Thu 09:58:49 PM 39.8706 -82.8517 22° Northeast 145 167 2,900 1,082 Climbing Indianapolis Center
Thu 09:59:20 PM 39.8883 -82.8408 25° Northeast 143 165 3,400 1,100 Climbing Indianapolis Center
Thu 09:59:49 PM 39.9075 -82.8314 21° North 141 162 4,000 984 Climbing Indianapolis Center
Thu 10:00:21 PM 39.9247 -82.8197 27° Northeast 143 165 4,400 984 Climbing Indianapolis Center
Thu 10:00:50 PM 39.9403 -82.8081 30° Northeast 144 166 5,000 885 Climbing Indianapolis Center
Thu 10:01:22 PM 39.9603 -82.7942 28° Northeast 145 167 5,300 885 Climbing Indianapolis Center
Thu 10:01:51 PM 39.9797 -82.7825 25° Northeast 149 171 5,900 885 Climbing Indianapolis Center
Thu 10:02:00 PM 40.0542 -82.7468 30° Northeast  Level FlightAware Approximate
Thu 10:02:23 PM 39.9992 -82.7717 23° Northeast 150 173 6,200  Level Indianapolis Center
Thu 10:02:51 PM 40.0189 -82.7597 25° Northeast 151 174 6,700 787 Climbing Indianapolis Center
Thu 10:03:24 PM 40.0367 -82.7425 37° Northeast 154 177 7,000 393 Climbing Indianapolis Center
Thu 10:03:52 PM 40.0567 -82.7258 33° Northeast 174 200 7,100  Climbing Indianapolis Center
Thu 10:04:25 PM 40.0786 -82.7022 39° Northeast 181 208 7,000  Descending Indianapolis Center
Thu 10:04:52 PM 40.0975 -82.6758 47° Northeast 208 239 7,100 -98 Climbing Indianapolis Center
Thu 10:05:26 PM 40.1183 -82.6494 44° Northeast 198 228 6,900 -98 Descending Indianapolis Center
Thu 10:05:53 PM 40.1400 -82.6342 28° Northeast 196 226 7,000  Climbing Indianapolis Center
Thu 10:06:27 PM 40.1658 -82.6150 30° Northeast 194 223 6,900  Descending Indianapolis Center
Thu 10:06:54 PM 40.1903 -82.6014 23° Northeast 197 227 7,000  Climbing Indianapolis Center
Thu 10:07:28 PM 40.2153 -82.5828 30° Northeast 197 227 6,900  Descending Indianapolis Center
Thu 10:07:54 PM 40.2408 -82.5661 26° Northeast 198 228 7,000  Climbing Indianapolis Center
Thu 10:08:29 PM 40.2647 -82.5489 29° Northeast 198 228 6,900 -63 Descending Indianapolis Center
Thu 10:09:30 PM 40.3139 -82.5147 28° Northeast 199 229 6,900  Level Indianapolis Center
Thu 10:10:31 PM 40.3633 -82.4808 28° Northeast 199 229 6,900  Level Indianapolis Center
Thu 10:11:32 PM 40.4122 -82.4461 28° Northeast 198 228 6,900  Level Indianapolis Center
Thu 10:12:33 PM 40.4614 -82.4136 27° Northeast 197 227 6,900  Level Indianapolis Center
Thu 10:13:34 PM 40.5111 -82.3800 27° Northeast 198 228 6,900  Level Indianapolis Center
Thu 10:14:35 PM 40.5608 -82.3483 26° Northeast 198 228 6,900  Level Indianapolis Center
Thu 10:15:36 PM 40.6103 -82.3119 29° Northeast 200 230 6,900  Level Indianapolis Center
Thu 10:16:38 PM 40.6633 -82.2775 26° Northeast 199 229 6,900  Level Cleveland Center
Thu 10:17:38 PM 40.7181 -82.2406 27° Northeast 199 229 6,900  Level Cleveland Center
Thu 10:18:39 PM 40.7644 -82.2061 29° Northeast 200 230 6,900  Level Cleveland Center
Thu 10:19:40 PM 40.8128 -82.1742 27° Northeast 202 232 6,900  Level Cleveland Center
Thu 10:20:40 PM 40.8633 -82.1397 27° Northeast 200 230 6,900  Level Cleveland Center
Thu 10:21:41 PM 40.9139 -82.1053 27° Northeast 201 231 6,900  Level Cleveland Center
Thu 10:22:29 PM 40.9558 -82.0789 25° Northeast 196 226 6,900  Level Cleveland Center
Thu 10:23:30 PM 41.0042 -82.0414 30° Northeast 199 229 6,900  Level Cleveland Center
Thu 10:24:24 PM 41.0442 -82.0119 29° Northeast 197 227 6,900 -261 Level Cleveland Center
Thu 10:25:25 PM 41.0989 -81.9800 24° Northeast 204 235 6,400 -537 Descending Cleveland Center
Thu 10:26:38 PM 41.1578 -81.9317 32° Northeast 213 245 5,700 -677 Descending Cleveland Center
Thu 10:27:38 PM 41.2144 -81.8997 23° Northeast 209 241 4,900 -744 Descending Cleveland Center
Thu 10:28:39 PM 41.2669 -81.8622 28° Northeast 210 242 4,200 -776 Descending Cleveland Center
Thu 10:29:34 PM 41.3069 -81.8297 31° Northeast 212 244 3,400 -626 Descending Cleveland Center
Thu 10:30:34 PM 41.3617 -81.7919 27° Northeast 189 217 3,000 -522 Descending Cleveland Center
Thu 10:31:29 PM 41.4075 -81.7792 12° North 184 212 2,400 -678 Descending Cleveland Center
Thu 10:32:29 PM 41.4556 -81.7689 North 183 211 1,700 -595 Descending Cleveland Center
Thu 10:33:30 PM 41.4933 -81.7392 31° Northeast 151 174 1,200 -492 Descending Cleveland Center
Thu 10:35:00 PM 41.5175 -81.6833 27° Northeast  Level Estimated
Thu 10:42:00 PM 41.5175 -81.6833 27° Northeast  Level Estimated

Login

Don't have an account? Register now (free) for customized features, flight alerts, and more!